Time,TemperatureF,DewpointF,PressureIn,WindDirection,WindDirectionDegrees,WindSpeedMPH,WindSpeedGustMPH,Humidity,HourlyPrecipIn,Conditions,Clouds,dailyrainin,SoftwareType,DateUTC
2013-08-13 00:09:00,67.9,-36.5,29.96,West,270,0.0,2.0,1,0.00,,,0.00,Wunderground v.1.15,2013-08-13 05:09:00,
2013-08-13 00:19:00,67.9,-36.5,29.96,West,270,0.0,2.0,1,0.00,,,0.00,Wunderground v.1.15,2013-08-13 05:19:00,
2013-08-13 00:30:00,67.6,-36.7,29.96,West,270,0.0,2.0,1,0.00,,,0.00,Wunderground v.1.15,2013-08-13 05:30:00,
2013-08-13 00:39:00,67.8,-36.6,29.96,West,270,0.0,2.0,1,0.00,,,0.00,Wunderground v.1.15,2013-08-13 05:39:00,
2013-08-13 00:49:00,67.5,-36.7,29.96,West,269,0.0,2.0,1,0.00,,,0.00,Wunderground v.1.15,2013-08-13 05:49:00,
2013-08-13 00:59:00,67.6,-36.7,29.96,West,270,0.0,2.0,1,0.00,,,0.00,Wunderground v.1.15,2013-08-13 05:59:00,
2013-08-13 01:04:00,67.6,-36.7,29.96,West,269,0.0,2.0,1,0.00,,,0.00,Wunderground v.1.15,2013-08-13 06:04:00,
2013-08-13 01:14:00,67.5,-36.7,29.96,West,270,0.0,2.0,1,0.00,,,0.00,Wunderground v.1.15,2013-08-13 06:14:00,
2013-08-13 01:24:00,67.3,-36.9,29.96,West,269,0.0,2.0,1,0.00,,,0.00,Wunderground v.1.15,2013-08-13 06:24:00,
2013-08-13 01:34:00,66.8,-37.2,29.96,West,270,0.0,2.0,1,0.00,,,0.00,Wunderground v.1.15,2013-08-13 06:34:00,
2013-08-13 01:40:00,66.6,-37.3,29.95,West,270,0.0,2.0,1,0.00,,,0.00,Wunderground v.1.15,2013-08-13 06:40:00,
2013-08-13 01:49:00,66.6,-37.3,29.95,West,270,0.0,2.0,1,0.00,,,0.00,Wunderground v.1.15,2013-08-13 06:49:00,
2013-08-13 01:59:00,66.9,-37.1,29.95,West,270,0.0,2.0,1,0.00,,,0.00,Wunderground v.1.15,2013-08-13 06:59:00,
2013-08-13 02:09:00,66.6,-37.3,29.96,West,266,0.0,2.0,1,0.00,,,0.00,Wunderground v.1.15,2013-08-13 07:09:00,
2013-08-13 02:20:00,66.7,-37.2,29.95,ESE,115,0.0,2.0,1,0.00,,,0.00,Wunderground v.1.15,2013-08-13 07:20:00,
2013-08-13 02:29:00,66.3,-37.5,29.96,ESE,115,0.0,2.0,1,0.00,,,0.00,Wunderground v.1.15,2013-08-13 07:29:00,
2013-08-13 02:39:00,66.4,-37.4,29.95,ESE,115,0.0,2.0,1,0.00,,,0.00,Wunderground v.1.15,2013-08-13 07:39:00,
2013-08-13 02:49:00,66.4,-37.4,29.96,ESE,115,0.0,2.0,1,0.00,,,0.00,Wunderground v.1.15,2013-08-13 07:49:00,
2013-08-13 03:00:00,66.8,-37.2,29.96,ESE,115,0.0,2.0,1,0.00,,,0.00,Wunderground v.1.15,2013-08-13 08:00:00,
2013-08-13 03:09:00,67.4,-36.8,29.96,ESE,115,0.0,2.0,1,0.00,,,0.00,Wunderground v.1.15,2013-08-13 08:09:00,
2013-08-13 03:19:00,68.5,-36.1,29.96,SW,228,0.0,2.0,1,0.00,,,0.00,Wunderground v.1.15,2013-08-13 08:19:00,
2013-08-13 03:29:00,67.3,-36.9,29.96,SW,228,0.0,2.0,1,0.00,,,0.00,Wunderground v.1.15,2013-08-13 08:29:00,
2013-08-13 03:34:00,66.9,-37.1,29.96,SW,228,0.0,2.0,1,0.00,,,0.00,Wunderground v.1.15,2013-08-13 08:34:00,
2013-08-13 03:39:00,66.7,-37.2,29.96,SW,228,0.0,2.0,1,0.00,,,0.00,Wunderground v.1.15,2013-08-13 08:39:00,
2013-08-13 03:49:00,66.4,-37.4,29.96,SW,228,0.0,2.0,1,0.00,,,0.00,Wunderground v.1.15,2013-08-13 08:49:00,
2013-08-13 03:59:00,66.3,-37.5,29.96,SW,228,0.0,2.0,1,0.00,,,0.00,Wunderground v.1.15,2013-08-13 08:59:00,
2013-08-13 04:10:00,66.3,-37.5,29.96,SW,228,0.0,2.0,1,0.00,,,0.00,Wunderground v.1.15,2013-08-13 09:10:00,
2013-08-13 04:19:00,66.2,-37.5,29.97,SW,228,0.0,2.0,1,0.00,,,0.00,Wunderground v.1.15,2013-08-13 09:19:00,
2013-08-13 04:29:00,66.2,-37.5,29.96,SW,228,0.0,2.0,1,0.00,,,0.00,Wunderground v.1.15,2013-08-13 09:29:00,
2013-08-13 04:39:00,66.3,-37.5,29.97,SW,228,0.0,2.0,1,0.00,,,0.00,Wunderground v.1.15,2013-08-13 09:39:00,
2013-08-13 04:50:00,66.1,-37.6,29.97,SW,228,0.0,2.0,1,0.00,,,0.00,Wunderground v.1.15,2013-08-13 09:50:00,
2013-08-13 04:59:00,65.8,-37.8,29.97,SW,228,0.0,2.0,1,0.00,,,0.00,Wunderground v.1.15,2013-08-13 09:59:00,
2013-08-13 05:09:00,66.0,-37.6,29.97,SW,228,0.0,2.0,1,0.00,,,0.00,Wunderground v.1.15,2013-08-13 10:09:00,
2013-08-13 05:19:00,65.8,-37.8,29.97,SW,228,0.0,2.0,1,0.00,,,0.00,Wunderground v.1.15,2013-08-13 10:19:00,
2013-08-13 05:30:00,66.0,-37.6,29.97,ESE,122,0.0,2.0,1,0.00,,,0.00,Wunderground v.1.15,2013-08-13 10:30:00,
2013-08-13 05:39:00,66.1,-37.6,29.97,ESE,123,0.0,2.0,1,0.00,,,0.00,Wunderground v.1.15,2013-08-13 10:39:00,
2013-08-13 05:49:00,66.3,-37.5,29.97,ESE,123,0.0,2.0,1,0.00,,,0.00,Wunderground v.1.15,2013-08-13 10:49:00,
2013-08-13 05:59:00,66.5,-37.3,29.97,ESE,123,0.0,2.0,1,0.00,,,0.00,Wunderground v.1.15,2013-08-13 10:59:00,
2013-08-13 06:09:00,66.6,-37.3,29.97,ESE,122,0.0,2.0,1,0.00,,,0.00,Wunderground v.1.15,2013-08-13 11:09:00,
2013-08-13 06:19:00,66.6,-37.3,29.97,ESE,122,0.0,2.0,1,0.00,,,0.00,Wunderground v.1.15,2013-08-13 11:19:00,
2013-08-13 06:29:00,66.3,-37.5,29.98,ESE,122,0.0,2.0,1,0.00,,,0.00,Wunderground v.1.15,2013-08-13 11:29:00,
2013-08-13 06:40:00,66.2,-37.5,29.98,ESE,122,0.0,2.0,1,0.00,,,0.00,Wunderground v.1.15,2013-08-13 11:40:00,
2013-08-13 06:45:00,66.2,-37.5,29.98,ESE,123,0.0,2.0,1,0.00,,,0.00,Wunderground v.1.15,2013-08-13 11:45:00,
2013-08-13 06:54:00,66.2,-37.5,29.99,ESE,123,0.0,2.0,1,0.00,,,0.00,Wunderground v.1.15,2013-08-13 11:54:00,
2013-08-13 06:59:00,66.2,-37.5,29.99,ESE,123,0.0,2.0,1,0.00,,,0.00,Wunderground v.1.15,2013-08-13 11:59:00,
2013-08-13 07:09:00,66.2,-37.5,29.99,ESE,122,0.0,2.0,1,0.00,,,0.00,Wunderground v.1.15,2013-08-13 12:09:00,
2013-08-13 07:19:00,66.5,-37.3,30.00,ESE,123,0.0,2.0,1,0.00,,,0.00,Wunderground v.1.15,2013-08-13 12:19:00,
2013-08-13 07:30:00,66.7,-37.2,30.00,ESE,122,0.0,2.0,1,0.00,,,0.00,Wunderground v.1.15,2013-08-13 12:30:00,
2013-08-13 07:39:00,67.3,-36.9,30.01,ESE,122,0.0,2.0,1,0.00,,,0.00,Wunderground v.1.15,2013-08-13 12:39:00,
2013-08-13 07:49:00,67.7,-36.6,30.01,ESE,122,0.0,2.0,1,0.00,,,0.00,Wunderground v.1.15,2013-08-13 12:49:00,
2013-08-13 07:54:00,68.1,-36.4,30.01,ESE,122,0.0,2.0,1,0.00,,,0.00,Wunderground v.1.15,2013-08-13 12:54:00,
2013-08-13 08:04:00,69.0,-35.8,30.01,ESE,122,0.0,2.0,1,0.00,,,0.00,Wunderground v.1.15,2013-08-13 13:04:00,
2013-08-13 08:09:00,69.5,-35.5,30.01,ENE,70,0.0,2.0,1,0.00,,,0.00,Wunderground v.1.15,2013-08-13 13:09:00,
2013-08-13 08:19:00,69.5,-35.5,30.01,NW,325,0.0,2.0,1,0.00,,,0.00,Wunderground v.1.15,2013-08-13 13:19:00,
2013-08-13 08:29:00,70.1,-35.2,30.01,WNW,291,0.0,2.0,1,0.00,,,0.00,Wunderground v.1.15,2013-08-13 13:29:00,
2013-08-13 08:34:00,70.1,-35.2,30.01,North,356,0.0,2.0,1,0.00,,,0.00,Wunderground v.1.15,2013-08-13 13:34:00,
2013-08-13 08:45:00,70.7,-34.8,30.02,NNW,342,1.0,3.0,1,0.00,,,0.00,Wunderground v.1.15,2013-08-13 13:45:00,
2013-08-13 08:54:00,71.9,-34.1,30.02,West,281,0.0,2.0,1,0.00,,,0.00,Wunderground v.1.15,2013-08-13 13:54:00,
2013-08-13 09:04:00,73.0,-33.4,30.02,West,266,0.0,2.0,1,0.00,,,0.00,Wunderground v.1.15,2013-08-13 14:04:00,
2013-08-13 09:09:00,73.1,-33.3,30.02,West,271,0.0,2.0,1,0.00,,,0.00,Wunderground v.1.15,2013-08-13 14:09:00,
2013-08-13 09:19:00,73.1,-33.3,30.02,NNW,346,0.0,2.0,1,0.00,,,0.00,Wunderground v.1.15,2013-08-13 14:19:00,
2013-08-13 09:29:00,73.0,-33.4,30.02,NNW,329,1.0,2.0,1,0.00,,,0.00,Wunderground v.1.15,2013-08-13 14:29:00,
2013-08-13 09:39:00,72.6,-33.6,30.02,NNW,332,0.0,2.0,1,0.00,,,0.00,Wunderground v.1.15,2013-08-13 14:39:00,
2013-08-13 09:44:00,72.4,-33.8,30.03,NW,311,0.0,2.0,1,0.00,,,0.00,Wunderground v.1.15,2013-08-13 14:44:00,
2013-08-13 09:54:00,73.6,-33.0,30.03,North,8,0.0,2.0,1,0.00,,,0.00,Wunderground v.1.15,2013-08-13 14:54:00,
2013-08-13 10:04:00,74.3,-32.6,30.04,SW,226,0.0,2.0,1,0.00,,,0.00,Wunderground v.1.15,2013-08-13 15:04:00,
2013-08-13 10:15:00,75.2,-32.1,30.04,NW,324,1.0,2.0,1,0.00,,,0.00,Wunderground v.1.15,2013-08-13 15:15:00,
2013-08-13 10:24:00,76.0,25.0,30.04,NNW,343,1.0,2.0,15,0.00,,,0.00,Wunderground v.1.15,2013-08-13 15:24:00,
2013-08-13 10:34:00,76.0,32.0,30.04,West,264,1.0,2.0,20,0.00,,,0.00,Wunderground v.1.15,2013-08-13 15:34:00,
2013-08-13 10:44:00,76.6,29.9,30.05,WNW,301,0.0,2.0,18,0.00,,,0.00,Wunderground v.1.15,2013-08-13 15:44:00,
2013-08-13 10:49:00,77.2,29.0,30.05,West,280,0.0,2.0,17,0.00,,,0.00,Wunderground v.1.15,2013-08-13 15:49:00,
2013-08-13 11:00:00,77.8,45.6,30.05,SW,228,1.0,3.0,32,0.00,,,0.00,Wunderground v.1.15,2013-08-13 16:00:00,
2013-08-13 11:09:00,78.8,41.0,30.05,North,353,1.0,3.0,26,0.00,,,0.00,Wunderground v.1.15,2013-08-13 16:09:00,
2013-08-13 11:19:00,78.4,46.9,30.04,NNE,25,2.0,4.0,33,0.00,,,0.00,Wunderground v.1.15,2013-08-13 16:19:00,
2013-08-13 11:29:00,77.4,44.4,30.04,WNW,295,3.0,3.0,31,0.00,,,0.00,Wunderground v.1.15,2013-08-13 16:29:00,
2013-08-13 11:40:00,78.3,44.3,30.04,WSW,250,1.0,4.0,30,0.00,,,0.00,Wunderground v.1.15,2013-08-13 16:40:00,
2013-08-13 11:49:00,77.8,50.9,30.05,ENE,75,2.0,2.0,39,0.00,,,0.00,Wunderground v.1.15,2013-08-13 16:49:00,
2013-08-13 11:54:00,78.7,49.5,30.05,WSW,256,1.0,6.0,36,0.00,,,0.00,Wunderground v.1.15,2013-08-13 16:54:00,
2013-08-13 11:59:00,78.7,55.0,30.04,West,266,2.0,2.0,44,0.00,,,0.00,Wunderground v.1.15,2013-08-13 16:59:00,
2013-08-13 12:14:00,78.8,51.7,30.05,NW,316,1.0,2.0,39,0.00,,,0.00,Wunderground v.1.15,2013-08-13 17:14:00,
2013-08-13 12:19:00,79.5,56.3,30.04,NNW,330,1.0,1.0,45,0.00,,,0.00,Wunderground v.1.15,2013-08-13 17:19:00,
2013-08-13 12:29:00,79.3,56.7,30.04,NNE,18,3.0,4.0,46,0.00,,,0.00,Wunderground v.1.15,2013-08-13 17:29:00,
2013-08-13 12:39:00,79.3,54.9,30.04,WSW,248,2.0,4.0,43,0.00,,,0.00,Wunderground v.1.15,2013-08-13 17:39:00,
2013-08-13 12:49:00,78.9,56.4,30.04,WSW,243,2.0,2.0,46,0.00,,,0.00,Wunderground v.1.15,2013-08-13 17:49:00,
2013-08-13 12:55:00,79.2,57.2,30.03,WNW,285,2.0,2.0,47,0.00,,,0.00,Wunderground v.1.15,2013-08-13 17:55:00,
2013-08-13 13:04:00,79.7,51.8,30.03,WNW,295,2.0,3.0,38,0.00,,,0.00,Wunderground v.1.15,2013-08-13 18:04:00,
2013-08-13 13:10:00,79.4,56.2,30.03,SW,226,2.0,4.0,45,0.00,,,0.00,Wunderground v.1.15,2013-08-13 18:10:00,
2013-08-13 13:15:00,79.2,57.2,30.03,WNW,285,3.0,4.0,47,0.00,,,0.00,Wunderground v.1.15,2013-08-13 18:15:00,
2013-08-13 13:24:00,79.8,56.6,30.03,NW,315,1.0,2.0,45,0.00,,,0.00,Wunderground v.1.15,2013-08-13 18:24:00,
2013-08-13 13:34:00,80.2,58.7,30.03,WNW,287,2.0,2.0,48,0.00,,,0.00,Wunderground v.1.15,2013-08-13 18:34:00,
2013-08-13 13:44:00,80.2,59.3,30.02,WNW,285,2.0,3.0,49,0.00,,,0.00,Wunderground v.1.15,2013-08-13 18:44:00,
2013-08-13 13:49:00,79.9,59.6,30.02,West,267,2.0,6.0,50,0.00,,,0.00,Wunderground v.1.15,2013-08-13 18:49:00,
2013-08-13 13:54:00,79.9,56.7,30.02,West,270,2.0,6.0,45,0.00,,,0.00,Wunderground v.1.15,2013-08-13 18:54:00,
2013-08-13 14:04:00,80.4,58.9,30.02,NNW,327,2.0,5.0,48,0.00,,,0.00,Wunderground v.1.15,2013-08-13 19:04:00,
2013-08-13 14:14:00,78.6,56.7,30.02,North,3,4.0,6.0,47,0.00,,,0.00,Wunderground v.1.15,2013-08-13 19:14:00,
2013-08-13 14:25:00,78.4,54.0,30.02,West,259,1.0,3.0,43,0.00,,,0.00,Wunderground v.1.15,2013-08-13 19:25:00,
2013-08-13 14:30:00,78.6,54.2,30.01,NNW,342,1.0,1.0,43,0.00,,,0.00,Wunderground v.1.15,2013-08-13 19:30:00,
2013-08-13 14:39:00,79.1,57.1,30.01,West,280,2.0,2.0,47,0.00,,,0.00,Wunderground v.1.15,2013-08-13 19:39:00,
2013-08-13 14:44:00,78.9,57.0,30.01,WNW,298,3.0,3.0,47,0.00,,,0.00,Wunderground v.1.15,2013-08-13 19:44:00,
2013-08-13 14:54:00,78.1,57.4,30.01,NNW,348,1.0,2.0,49,0.00,,,0.00,Wunderground v.1.15,2013-08-13 19:54:00,
2013-08-13 15:04:00,77.3,55.5,30.01,NW,325,1.0,2.0,47,0.00,,,0.00,Wunderground v.1.15,2013-08-13 20:04:00,
2013-08-13 15:15:00,77.5,54.5,30.01,West,276,1.0,5.0,45,0.00,,,0.00,Wunderground v.1.15,2013-08-13 20:15:00,
2013-08-13 15:24:00,77.5,50.6,30.00,NNW,338,1.0,2.0,39,0.00,,,0.00,Wunderground v.1.15,2013-08-13 20:24:00,
2013-08-13 15:34:00,77.0,52.1,30.00,NNW,338,1.0,3.0,42,0.00,,,0.00,Wunderground v.1.15,2013-08-13 20:34:00,
2013-08-13 15:44:00,77.1,50.9,30.00,North,4,0.0,2.0,40,0.00,,,0.00,Wunderground v.1.15,2013-08-13 20:44:00,
2013-08-13 15:54:00,77.3,51.1,29.99,NNW,338,2.0,3.0,40,0.00,,,0.00,Wunderground v.1.15,2013-08-13 20:54:00,
2013-08-13 15:59:00,77.2,51.7,29.99,NE,51,1.0,1.0,41,0.00,,,0.00,Wunderground v.1.15,2013-08-13 20:59:00,
2013-08-13 16:09:00,78.3,53.3,29.99,NW,305,1.0,2.0,42,0.00,,,0.00,Wunderground v.1.15,2013-08-13 21:09:00,
2013-08-13 16:19:00,78.6,54.9,30.00,NW,314,1.0,1.0,44,0.00,,,0.00,Wunderground v.1.15,2013-08-13 21:19:00,
2013-08-13 16:30:00,78.8,56.9,29.99,West,280,1.0,2.0,47,0.00,,,0.00,Wunderground v.1.15,2013-08-13 21:30:00,
2013-08-13 16:34:00,78.8,54.4,29.99,WSW,248,1.0,2.0,43,0.00,,,0.00,Wunderground v.1.15,2013-08-13 21:34:00,
2013-08-13 16:44:00,79.0,55.2,29.99,North,11,1.0,3.0,44,0.00,,,0.00,Wunderground v.1.15,2013-08-13 21:44:00,
2013-08-13 16:49:00,78.2,53.9,29.99,NNW,331,1.0,2.0,43,0.00,,,0.00,Wunderground v.1.15,2013-08-13 21:49:00,
2013-08-13 16:59:00,78.1,53.8,29.99,West,269,3.0,3.0,43,0.00,,,0.00,Wunderground v.1.15,2013-08-13 21:59:00,
2013-08-13 17:04:00,78.1,55.0,29.99,West,277,3.0,3.0,45,0.00,,,0.00,Wunderground v.1.15,2013-08-13 22:04:00,
2013-08-13 17:14:00,77.6,54.6,29.99,WNW,292,2.0,2.0,45,0.00,,,0.00,Wunderground v.1.15,2013-08-13 22:14:00,
2013-08-13 17:20:00,76.9,54.5,29.99,NW,305,2.0,2.0,46,0.00,,,0.00,Wunderground v.1.15,2013-08-13 22:20:00,
2013-08-13 17:29:00,77.1,53.5,29.99,NW,315,2.0,3.0,44,0.00,,,0.00,Wunderground v.1.15,2013-08-13 22:29:00,
2013-08-13 17:39:00,77.3,53.7,29.99,WNW,295,1.0,4.0,44,0.00,,,0.00,Wunderground v.1.15,2013-08-13 22:39:00,
2013-08-13 17:49:00,76.5,53.0,29.99,NNW,330,1.0,1.0,44,0.00,,,0.00,Wunderground v.1.15,2013-08-13 22:49:00,
2013-08-13 17:54:00,76.2,50.8,30.00,NW,325,1.0,2.0,41,0.00,,,0.00,Wunderground v.1.15,2013-08-13 22:54:00,
2013-08-13 17:59:00,76.5,50.4,30.00,NNW,348,1.0,3.0,40,0.00,,,0.00,Wunderground v.1.15,2013-08-13 22:59:00,
2013-08-13 18:09:00,76.4,52.2,29.99,NNW,348,1.0,3.0,43,0.00,,,0.00,Wunderground v.1.15,2013-08-13 23:09:00,
2013-08-13 18:19:00,76.1,51.3,29.99,NNW,328,1.0,3.0,42,0.00,,,0.00,Wunderground v.1.15,2013-08-13 23:19:00,
2013-08-13 18:29:00,75.7,49.7,29.99,NW,326,0.0,2.0,40,0.00,,,0.00,Wunderground v.1.15,2013-08-13 23:29:00,
2013-08-13 18:35:00,75.3,48.6,29.99,West,275,0.0,2.0,39,0.00,,,0.00,Wunderground v.1.15,2013-08-13 23:35:00,
2013-08-13 18:44:00,74.8,46.1,29.99,NW,307,0.0,2.0,36,0.00,,,0.00,Wunderground v.1.15,2013-08-13 23:44:00,
2013-08-13 18:54:00,74.4,43.4,29.99,NW,311,0.0,2.0,33,0.00,,,0.00,Wunderground v.1.15,2013-08-13 23:54:00,
2013-08-13 19:04:00,73.8,40.4,29.99,NNW,330,0.0,2.0,30,0.00,,,0.00,Wunderground v.1.15,2013-08-14 00:04:00,
2013-08-13 19:15:00,73.4,34.4,29.99,West,281,0.0,2.0,24,0.00,,,0.00,Wunderground v.1.15,2013-08-14 00:15:00,
2013-08-13 19:24:00,72.8,33.9,29.99,NW,309,0.0,2.0,24,0.00,,,0.00,Wunderground v.1.15,2013-08-14 00:24:00,
2013-08-13 19:34:00,72.2,21.9,29.99,NNW,332,0.0,2.0,15,0.00,,,0.00,Wunderground v.1.15,2013-08-14 00:34:00,
2013-08-13 19:44:00,71.5,-34.3,30.00,NNW,331,0.0,2.0,1,0.00,,,0.00,Wunderground v.1.15,2013-08-14 00:44:00,
2013-08-13 19:54:00,70.1,-35.2,30.00,NNW,332,0.0,2.0,1,0.00,,,0.00,Wunderground v.1.15,2013-08-14 00:54:00,
2013-08-13 19:59:00,69.3,-35.6,30.00,NNW,332,0.0,2.0,1,0.00,,,0.00,Wunderground v.1.15,2013-08-14 00:59:00,
2013-08-13 20:09:00,67.9,-36.5,30.00,NNW,331,0.0,2.0,1,0.00,,,0.00,Wunderground v.1.15,2013-08-14 01:09:00,
2013-08-13 20:19:00,66.7,-37.2,30.00,NNW,331,0.0,2.0,1,0.00,,,0.00,Wunderground v.1.15,2013-08-14 01:19:00,
2013-08-13 20:30:00,65.7,-37.8,30.00,NNW,331,0.0,2.0,1,0.00,,,0.00,Wunderground v.1.15,2013-08-14 01:30:00,
2013-08-13 20:39:00,65.1,-38.2,30.01,NNW,332,0.0,2.0,1,0.00,,,0.00,Wunderground v.1.15,2013-08-14 01:39:00,
2013-08-13 20:49:00,64.8,-38.4,30.01,NNW,331,0.0,2.0,1,0.00,,,0.00,Wunderground v.1.15,2013-08-14 01:49:00,
2013-08-13 20:54:00,64.9,-38.3,30.01,NNW,332,0.0,2.0,1,0.00,,,0.00,Wunderground v.1.15,2013-08-14 01:54:00,
2013-08-13 21:04:00,64.7,-38.4,30.02,NNW,332,0.0,2.0,1,0.00,,,0.00,Wunderground v.1.15,2013-08-14 02:04:00,
2013-08-13 21:15:00,64.6,-38.5,30.02,NNW,331,0.0,2.0,1,0.00,,,0.00,Wunderground v.1.15,2013-08-14 02:15:00,
2013-08-13 21:24:00,64.7,-38.4,30.03,NNW,332,0.0,2.0,1,0.00,,,0.00,Wunderground v.1.15,2013-08-14 02:24:00,
2013-08-13 21:34:00,64.2,-38.7,30.04,NNW,332,0.0,2.0,1,0.00,,,0.00,Wunderground v.1.15,2013-08-14 02:34:00,
2013-08-13 21:44:00,64.2,-38.7,30.04,NNW,332,0.0,2.0,1,0.00,,,0.00,Wunderground v.1.15,2013-08-14 02:44:00,
2013-08-13 21:55:00,64.1,-38.8,30.04,NNW,332,0.0,2.0,1,0.00,,,0.00,Wunderground v.1.15,2013-08-14 02:55:00,
2013-08-13 22:04:00,63.6,-39.1,30.05,NNW,332,0.0,2.0,1,0.00,,,0.00,Wunderground v.1.15,2013-08-14 03:04:00,
2013-08-13 22:14:00,63.3,-39.3,30.05,NNW,332,0.0,2.0,1,0.00,,,0.00,Wunderground v.1.15,2013-08-14 03:14:00,
2013-08-13 22:24:00,63.2,-39.4,30.05,NNW,332,0.0,2.0,1,0.00,,,0.00,Wunderground v.1.15,2013-08-14 03:24:00,
2013-08-13 22:34:00,63.1,-39.4,30.05,NNW,331,0.0,2.0,1,0.00,,,0.00,Wunderground v.1.15,2013-08-14 03:34:00,
2013-08-13 22:44:00,62.9,-39.5,30.06,NNW,332,0.0,2.0,1,0.00,,,0.00,Wunderground v.1.15,2013-08-14 03:44:00,
2013-08-13 22:54:00,62.6,-39.7,30.06,NNW,332,0.0,2.0,1,0.00,,,0.00,Wunderground v.1.15,2013-08-14 03:54:00,
2013-08-13 23:05:00,63.3,-39.3,30.06,NNW,332,0.0,2.0,1,0.00,,,0.00,Wunderground v.1.15,2013-08-14 04:05:00,
2013-08-13 23:09:00,63.3,-39.3,30.06,NNW,331,0.0,2.0,1,0.00,,,0.00,Wunderground v.1.15,2013-08-14 04:09:00,
2013-08-13 23:19:00,62.8,-39.6,30.06,NNW,332,0.0,2.0,1,0.00,,,0.00,Wunderground v.1.15,2013-08-14 04:19:00,
2013-08-13 23:24:00,62.7,-39.7,30.06,NNW,332,0.0,2.0,1,0.00,,,0.00,Wunderground v.1.15,2013-08-14 04:24:00,
2013-08-13 23:29:00,63.3,-39.3,30.06,NNW,332,0.0,2.0,1,0.00,,,0.00,Wunderground v.1.15,2013-08-14 04:29:00,
2013-08-13 23:34:00,63.8,-39.0,30.07,NNW,332,0.0,2.0,1,0.00,,,0.00,Wunderground v.1.15,2013-08-14 04:34:00,
2013-08-13 23:39:00,63.7,-39.0,30.07,NNW,332,0.0,2.0,1,0.00,,,0.00,Wunderground v.1.15,2013-08-14 04:39:00,
2013-08-13 23:50:00,63.5,-39.2,30.07,NNW,332,0.0,2.0,1,0.00,,,0.00,Wunderground v.1.15,2013-08-14 04:50:00,
2013-08-13 23:59:00,64.1,-38.8,30.08,NNW,330,0.0,2.0,1,0.00,,,0.00,Wunderground v.1.15,2013-08-14 04:59:00,